sensor_id;sensor_type;location;lat;lon;timestamp;temperature;humidity
49489;SHT31;35382;51.484;11.476;2023-12-20T00:02:13;3.85;98.85
49489;SHT31;35382;51.484;11.476;2023-12-20T00:04:39;3.91;98.88
49489;SHT31;35382;51.484;11.476;2023-12-20T00:07:04;3.86;98.83
49489;SHT31;35382;51.484;11.476;2023-12-20T00:09:29;3.90;98.78
49489;SHT31;35382;51.484;11.476;2023-12-20T00:11:55;3.90;98.72
49489;SHT31;35382;51.484;11.476;2023-12-20T00:14:20;3.89;98.80
49489;SHT31;35382;51.484;11.476;2023-12-20T00:16:48;3.87;98.95
49489;SHT31;35382;51.484;11.476;2023-12-20T00:19:13;3.90;98.69
49489;SHT31;35382;51.484;11.476;2023-12-20T00:21:39;3.87;98.69
49489;SHT31;35382;51.484;11.476;2023-12-20T00:24:04;3.94;98.70
49489;SHT31;35382;51.484;11.476;2023-12-20T00:26:30;3.94;98.53
49489;SHT31;35382;51.484;11.476;2023-12-20T00:28:55;3.90;98.62
49489;SHT31;35382;51.484;11.476;2023-12-20T00:31:21;3.94;98.61
49489;SHT31;35382;51.484;11.476;2023-12-20T00:33:46;3.93;98.46
49489;SHT31;35382;51.484;11.476;2023-12-20T00:36:11;3.94;98.26
49489;SHT31;35382;51.484;11.476;2023-12-20T00:38:37;3.96;98.15
49489;SHT31;35382;51.484;11.476;2023-12-20T00:41:02;3.97;98.21
49489;SHT31;35382;51.484;11.476;2023-12-20T00:43:28;3.97;98.23
49489;SHT31;35382;51.484;11.476;2023-12-20T00:45:53;3.99;98.24
49489;SHT31;35382;51.484;11.476;2023-12-20T00:48:18;3.96;98.48
49489;SHT31;35382;51.484;11.476;2023-12-20T00:50:44;3.99;98.61
49489;SHT31;35382;51.484;11.476;2023-12-20T00:53:09;4.00;98.54
49489;SHT31;35382;51.484;11.476;2023-12-20T00:55:35;3.94;98.66
49489;SHT31;35382;51.484;11.476;2023-12-20T00:58:00;3.97;98.57
49489;SHT31;35382;51.484;11.476;2023-12-20T01:00:25;3.94;98.57
49489;SHT31;35382;51.484;11.476;2023-12-20T01:02:51;4.00;98.63
49489;SHT31;35382;51.484;11.476;2023-12-20T01:05:18;3.97;98.50
49489;SHT31;35382;51.484;11.476;2023-12-20T01:07:43;3.99;98.67
49489;SHT31;35382;51.484;11.476;2023-12-20T01:10:09;3.99;98.70
49489;SHT31;35382;51.484;11.476;2023-12-20T01:12:35;3.94;98.80
49489;SHT31;35382;51.484;11.476;2023-12-20T01:15:01;3.93;99.12
49489;SHT31;35382;51.484;11.476;2023-12-20T01:17:26;3.89;99.29
49489;SHT31;35382;51.484;11.476;2023-12-20T01:19:52;3.89;99.34
49489;SHT31;35382;51.484;11.476;2023-12-20T01:22:17;3.85;99.52
49489;SHT31;35382;51.484;11.476;2023-12-20T01:24:42;3.80;99.61
49489;SHT31;35382;51.484;11.476;2023-12-20T01:27:08;3.77;99.74
49489;SHT31;35382;51.484;11.476;2023-12-20T01:29:33;3.77;99.88
49489;SHT31;35382;51.484;11.476;2023-12-20T01:31:58;3.77;99.92
49489;SHT31;35382;51.484;11.476;2023-12-20T01:34:24;3.79;99.94
49489;SHT31;35382;51.484;11.476;2023-12-20T01:36:49;3.77;99.95
49489;SHT31;35382;51.484;11.476;2023-12-20T01:39:14;3.79;99.91
49489;SHT31;35382;51.484;11.476;2023-12-20T01:41:40;3.83;99.92
49489;SHT31;35382;51.484;11.476;2023-12-20T01:44:05;3.87;99.76
49489;SHT31;35382;51.484;11.476;2023-12-20T01:46:31;3.83;99.74
49489;SHT31;35382;51.484;11.476;2023-12-20T01:48:56;3.86;99.88
49489;SHT31;35382;51.484;11.476;2023-12-20T01:51:22;3.87;99.74
49489;SHT31;35382;51.484;11.476;2023-12-20T01:53:48;3.86;99.57
49489;SHT31;35382;51.484;11.476;2023-12-20T01:56:14;3.85;99.61
49489;SHT31;35382;51.484;11.476;2023-12-20T01:58:43;3.87;99.65
49489;SHT31;35382;51.484;11.476;2023-12-20T02:01:10;3.86;99.72
49489;SHT31;35382;51.484;11.476;2023-12-20T02:03:35;3.83;99.84
49489;SHT31;35382;51.484;11.476;2023-12-20T02:06:01;3.85;99.99
49489;SHT31;35382;51.484;11.476;2023-12-20T02:08:26;3.83;99.99
49489;SHT31;35382;51.484;11.476;2023-12-20T02:10:51;3.83;99.99
49489;SHT31;35382;51.484;11.476;2023-12-20T02:13:17;3.83;99.99
49489;SHT31;35382;51.484;11.476;2023-12-20T02:15:42;3.83;99.99
49489;SHT31;35382;51.484;11.476;2023-12-20T02:18:08;3.87;99.99
49489;SHT31;35382;51.484;11.476;2023-12-20T02:20:33;3.91;99.99
49489;SHT31;35382;51.484;11.476;2023-12-20T02:22:58;3.89;99.98
49489;SHT31;35382;51.484;11.476;2023-12-20T02:25:24;3.90;99.99
49489;SHT31;35382;51.484;11.476;2023-12-20T02:27:49;3.91;99.99
49489;SHT31;35382;51.484;11.476;2023-12-20T02:30:15;3.89;99.99
49489;SHT31;35382;51.484;11.476;2023-12-20T02:32:41;3.91;99.99
49489;SHT31;35382;51.484;11.476;2023-12-20T02:35:06;3.90;99.99
49489;SHT31;35382;51.484;11.476;2023-12-20T02:37:33;3.93;99.99
49489;SHT31;35382;51.484;11.476;2023-12-20T02:39:58;3.94;99.99
49489;SHT31;35382;51.484;11.476;2023-12-20T02:42:24;3.97;99.99
49489;SHT31;35382;51.484;11.476;2023-12-20T02:44:50;3.99;99.99
49489;SHT31;35382;51.484;11.476;2023-12-20T02:47:15;3.97;99.99
49489;SHT31;35382;51.484;11.476;2023-12-20T02:49:43;4.00;99.99
49489;SHT31;35382;51.484;11.476;2023-12-20T02:52:08;4.00;99.99
49489;SHT31;35382;51.484;11.476;2023-12-20T02:54:33;3.99;99.99
49489;SHT31;35382;51.484;11.476;2023-12-20T02:56:59;3.99;99.99
49489;SHT31;35382;51.484;11.476;2023-12-20T02:59:24;3.96;99.99
49489;SHT31;35382;51.484;11.476;2023-12-20T03:01:50;3.99;99.99
49489;SHT31;35382;51.484;11.476;2023-12-20T03:04:15;4.04;99.99
49489;SHT31;35382;51.484;11.476;2023-12-20T03:06:41;4.04;99.99
49489;SHT31;35382;51.484;11.476;2023-12-20T03:09:07;4.03;99.99
49489;SHT31;35382;51.484;11.476;2023-12-20T03:11:33;4.03;99.99
49489;SHT31;35382;51.484;11.476;2023-12-20T03:13:58;4.03;99.99
49489;SHT31;35382;51.484;11.476;2023-12-20T03:16:23;4.04;99.99
49489;SHT31;35382;51.484;11.476;2023-12-20T03:18:49;4.04;99.99
49489;SHT31;35382;51.484;11.476;2023-12-20T03:21:17;4.03;99.99
49489;SHT31;35382;51.484;11.476;2023-12-20T03:23:43;4.04;99.99
49489;SHT31;35382;51.484;11.476;2023-12-20T03:26:09;4.04;99.99
49489;SHT31;35382;51.484;11.476;2023-12-20T03:28:35;4.03;99.99
49489;SHT31;35382;51.484;11.476;2023-12-20T03:31:01;4.03;99.99
49489;SHT31;35382;51.484;11.476;2023-12-20T03:33:27;4.07;99.99
49489;SHT31;35382;51.484;11.476;2023-12-20T03:35:52;4.10;99.99
49489;SHT31;35382;51.484;11.476;2023-12-20T03:38:17;4.09;99.99
49489;SHT31;35382;51.484;11.476;2023-12-20T03:40:43;4.07;99.99
49489;SHT31;35382;51.484;11.476;2023-12-20T03:43:08;4.07;99.99
49489;SHT31;35382;51.484;11.476;2023-12-20T03:45:34;4.00;99.99
49489;SHT31;35382;51.484;11.476;2023-12-20T03:47:59;3.99;99.99
49489;SHT31;35382;51.484;11.476;2023-12-20T03:50:26;3.97;99.99
49489;SHT31;35382;51.484;11.476;2023-12-20T03:52:52;3.91;99.99
49489;SHT31;35382;51.484;11.476;2023-12-20T03:55:17;3.94;99.99
49489;SHT31;35382;51.484;11.476;2023-12-20T03:57:43;4.01;99.99
49489;SHT31;35382;51.484;11.476;2023-12-20T04:00:09;3.99;99.99
49489;SHT31;35382;51.484;11.476;2023-12-20T04:02:38;4.13;99.99
49489;SHT31;35382;51.484;11.476;2023-12-20T04:05:04;4.03;99.99
49489;SHT31;35382;51.484;11.476;2023-12-20T04:07:29;4.10;99.99
49489;SHT31;35382;51.484;11.476;2023-12-20T04:09:55;4.09;99.99
49489;SHT31;35382;51.484;11.476;2023-12-20T04:12:21;4.06;99.99
49489;SHT31;35382;51.484;11.476;2023-12-20T04:14:47;3.94;99.99
49489;SHT31;35382;51.484;11.476;2023-12-20T04:17:14;3.80;99.99
49489;SHT31;35382;51.484;11.476;2023-12-20T04:19:39;3.72;99.99
49489;SHT31;35382;51.484;11.476;2023-12-20T04:22:05;3.63;99.99
49489;SHT31;35382;51.484;11.476;2023-12-20T04:24:30;3.52;99.99
49489;SHT31;35382;51.484;11.476;2023-12-20T04:26:55;3.45;99.99
49489;SHT31;35382;51.484;11.476;2023-12-20T04:29:21;3.23;99.99
49489;SHT31;35382;51.484;11.476;2023-12-20T04:31:46;3.04;99.99
49489;SHT31;35382;51.484;11.476;2023-12-20T04:34:11;3.13;99.99
49489;SHT31;35382;51.484;11.476;2023-12-20T04:36:37;3.33;99.99
49489;SHT31;35382;51.484;11.476;2023-12-20T04:39:02;3.56;99.99
49489;SHT31;35382;51.484;11.476;2023-12-20T04:41:28;3.60;99.99
49489;SHT31;35382;51.484;11.476;2023-12-20T04:43:54;3.73;99.99
49489;SHT31;35382;51.484;11.476;2023-12-20T04:46:19;3.82;99.99
49489;SHT31;35382;51.484;11.476;2023-12-20T04:48:44;3.76;99.99
49489;SHT31;35382;51.484;11.476;2023-12-20T04:51:10;3.63;99.99
49489;SHT31;35382;51.484;11.476;2023-12-20T04:53:35;3.72;99.99
49489;SHT31;35382;51.484;11.476;2023-12-20T04:56:00;3.82;99.99
49489;SHT31;35382;51.484;11.476;2023-12-20T04:58:26;3.73;99.99
49489;SHT31;35382;51.484;11.476;2023-12-20T05:00:51;3.66;99.99
49489;SHT31;35382;51.484;11.476;2023-12-20T05:03:17;3.62;99.99
49489;SHT31;35382;51.484;11.476;2023-12-20T05:05:42;3.53;99.99
49489;SHT31;35382;51.484;11.476;2023-12-20T05:08:08;3.65;99.99
49489;SHT31;35382;51.484;11.476;2023-12-20T05:10:33;3.70;99.99
49489;SHT31;35382;51.484;11.476;2023-12-20T05:12:58;3.91;99.99
49489;SHT31;35382;51.484;11.476;2023-12-20T05:15:24;3.94;99.99
49489;SHT31;35382;51.484;11.476;2023-12-20T05:17:49;4.03;99.96
49489;SHT31;35382;51.484;11.476;2023-12-20T05:20:15;3.97;99.37
49489;SHT31;35382;51.484;11.476;2023-12-20T05:22:43;4.00;98.74
49489;SHT31;35382;51.484;11.476;2023-12-20T05:25:08;4.09;96.89
49489;SHT31;35382;51.484;11.476;2023-12-20T05:27:34;4.11;95.35
49489;SHT31;35382;51.484;11.476;2023-12-20T05:29:59;3.93;94.58
49489;SHT31;35382;51.484;11.476;2023-12-20T05:32:24;3.73;95.16
49489;SHT31;35382;51.484;11.476;2023-12-20T05:34:50;3.59;95.26
49489;SHT31;35382;51.484;11.476;2023-12-20T05:37:15;3.33;96.41
49489;SHT31;35382;51.484;11.476;2023-12-20T05:39:41;3.32;97.14
49489;SHT31;35382;51.484;11.476;2023-12-20T05:42:06;3.35;97.56
49489;SHT31;35382;51.484;11.476;2023-12-20T05:44:31;3.42;97.97
49489;SHT31;35382;51.484;11.476;2023-12-20T05:46:57;3.49;98.30
49489;SHT31;35382;51.484;11.476;2023-12-20T05:49:22;3.49;98.46
49489;SHT31;35382;51.484;11.476;2023-12-20T05:51:47;3.28;98.63
49489;SHT31;35382;51.484;11.476;2023-12-20T05:54:15;3.23;98.58
49489;SHT31;35382;51.484;11.476;2023-12-20T05:56:41;3.35;98.81
49489;SHT31;35382;51.484;11.476;2023-12-20T05:59:06;3.63;98.31
49489;SHT31;35382;51.484;11.476;2023-12-20T06:01:31;3.90;97.76
49489;SHT31;35382;51.484;11.476;2023-12-20T06:03:57;4.04;97.16
49489;SHT31;35382;51.484;11.476;2023-12-20T06:06:23;4.20;97.00
49489;SHT31;35382;51.484;11.476;2023-12-20T06:08:49;4.27;96.16
49489;SHT31;35382;51.484;11.476;2023-12-20T06:11:14;4.33;95.62
49489;SHT31;35382;51.484;11.476;2023-12-20T06:13:40;4.40;95.04
49489;SHT31;35382;51.484;11.476;2023-12-20T06:16:06;4.40;94.76
49489;SHT31;35382;51.484;11.476;2023-12-20T06:18:31;4.29;94.79
49489;SHT31;35382;51.484;11.476;2023-12-20T06:20:56;4.30;94.65
49489;SHT31;35382;51.484;11.476;2023-12-20T06:23:22;4.14;94.97
49489;SHT31;35382;51.484;11.476;2023-12-20T06:25:48;3.96;95.22
49489;SHT31;35382;51.484;11.476;2023-12-20T06:28:13;3.91;95.66
49489;SHT31;35382;51.484;11.476;2023-12-20T06:30:38;3.80;96.03
49489;SHT31;35382;51.484;11.476;2023-12-20T06:33:04;3.75;95.86
49489;SHT31;35382;51.484;11.476;2023-12-20T06:35:29;3.86;95.65
49489;SHT31;35382;51.484;11.476;2023-12-20T06:37:54;4.04;94.26
49489;SHT31;35382;51.484;11.476;2023-12-20T06:40:20;4.04;94.01
49489;SHT31;35382;51.484;11.476;2023-12-20T06:42:45;4.01;94.37
49489;SHT31;35382;51.484;11.476;2023-12-20T06:45:11;4.04;94.51
49489;SHT31;35382;51.484;11.476;2023-12-20T06:47:36;4.14;94.24
49489;SHT31;35382;51.484;11.476;2023-12-20T06:50:04;4.14;94.62
49489;SHT31;35382;51.484;11.476;2023-12-20T06:52:29;4.17;94.05
49489;SHT31;35382;51.484;11.476;2023-12-20T06:54:54;3.97;94.61
49489;SHT31;35382;51.484;11.476;2023-12-20T06:57:20;3.99;94.17
49489;SHT31;35382;51.484;11.476;2023-12-20T06:59:45;3.94;94.20
49489;SHT31;35382;51.484;11.476;2023-12-20T07:02:10;3.94;93.88
49489;SHT31;35382;51.484;11.476;2023-12-20T07:04:42;3.96;93.95
49489;SHT31;35382;51.484;11.476;2023-12-20T07:07:07;3.94;94.08
49489;SHT31;35382;51.484;11.476;2023-12-20T07:09:33;3.90;94.24
49489;SHT31;35382;51.484;11.476;2023-12-20T07:11:59;3.93;94.10
49489;SHT31;35382;51.484;11.476;2023-12-20T07:14:24;3.96;93.92
49489;SHT31;35382;51.484;11.476;2023-12-20T07:16:49;3.93;94.08
49489;SHT31;35382;51.484;11.476;2023-12-20T07:19:15;3.96;93.64
49489;SHT31;35382;51.484;11.476;2023-12-20T07:21:40;3.97;93.98
49489;SHT31;35382;51.484;11.476;2023-12-20T07:24:06;4.00;93.50
49489;SHT31;35382;51.484;11.476;2023-12-20T07:26:31;3.91;93.73
49489;SHT31;35382;51.484;11.476;2023-12-20T07:28:56;3.85;93.92
49489;SHT31;35382;51.484;11.476;2023-12-20T07:31:22;3.97;92.50
49489;SHT31;35382;51.484;11.476;2023-12-20T07:33:47;3.85;93.34
49489;SHT31;35382;51.484;11.476;2023-12-20T07:36:12;3.94;93.46
49489;SHT31;35382;51.484;11.476;2023-12-20T07:38:38;3.91;93.43
49489;SHT31;35382;51.484;11.476;2023-12-20T07:41:03;4.04;92.64
49489;SHT31;35382;51.484;11.476;2023-12-20T07:43:29;4.04;93.10
49489;SHT31;35382;51.484;11.476;2023-12-20T07:45:54;4.03;93.13
49489;SHT31;35382;51.484;11.476;2023-12-20T07:48:19;3.96;93.63
49489;SHT31;35382;51.484;11.476;2023-12-20T07:50:45;4.07;92.99
49489;SHT31;35382;51.484;11.476;2023-12-20T07:53:12;4.16;92.13
49489;SHT31;35382;51.484;11.476;2023-12-20T07:55:39;4.06;92.64
49489;SHT31;35382;51.484;11.476;2023-12-20T07:58:04;4.13;92.05
49489;SHT31;35382;51.484;11.476;2023-12-20T08:00:29;4.20;91.78
49489;SHT31;35382;51.484;11.476;2023-12-20T08:02:55;4.20;92.11
49489;SHT31;35382;51.484;11.476;2023-12-20T08:05:20;4.20;92.98
49489;SHT31;35382;51.484;11.476;2023-12-20T08:07:46;4.21;92.71
49489;SHT31;35382;51.484;11.476;2023-12-20T08:10:11;4.11;93.08
49489;SHT31;35382;51.484;11.476;2023-12-20T08:12:37;4.09;93.20
49489;SHT31;35382;51.484;11.476;2023-12-20T08:15:02;4.16;93.06
49489;SHT31;35382;51.484;11.476;2023-12-20T08:17:27;4.04;93.30
49489;SHT31;35382;51.484;11.476;2023-12-20T08:19:53;3.96;93.79
49489;SHT31;35382;51.484;11.476;2023-12-20T08:22:18;4.23;91.93
49489;SHT31;35382;51.484;11.476;2023-12-20T08:24:43;4.27;92.55
49489;SHT31;35382;51.484;11.476;2023-12-20T08:27:09;4.33;92.57
49489;SHT31;35382;51.484;11.476;2023-12-20T08:29:34;4.43;91.55
49489;SHT31;35382;51.484;11.476;2023-12-20T08:32:00;4.55;91.05
49489;SHT31;35382;51.484;11.476;2023-12-20T08:34:25;4.57;91.21
49489;SHT31;35382;51.484;11.476;2023-12-20T08:36:51;4.58;91.54
49489;SHT31;35382;51.484;11.476;2023-12-20T08:39:19;4.55;91.31
49489;SHT31;35382;51.484;11.476;2023-12-20T08:41:44;4.48;91.23
49489;SHT31;35382;51.484;11.476;2023-12-20T08:44:10;4.40;91.42
49489;SHT31;35382;51.484;11.476;2023-12-20T08:46:35;4.38;90.89
49489;SHT31;35382;51.484;11.476;2023-12-20T08:49:01;4.51;90.77
49489;SHT31;35382;51.484;11.476;2023-12-20T08:51:27;4.55;91.77
49489;SHT31;35382;51.484;11.476;2023-12-20T08:53:52;4.79;90.71
49489;SHT31;35382;51.484;11.476;2023-12-20T08:56:17;4.92;90.09
49489;SHT31;35382;51.484;11.476;2023-12-20T08:58:44;5.16;89.81
49489;SHT31;35382;51.484;11.476;2023-12-20T09:01:09;5.43;89.75
49489;SHT31;35382;51.484;11.476;2023-12-20T09:03:34;5.57;89.50
49489;SHT31;35382;51.484;11.476;2023-12-20T09:06:00;5.57;88.70
49489;SHT31;35382;51.484;11.476;2023-12-20T09:08:26;5.28;89.46
49489;SHT31;35382;51.484;11.476;2023-12-20T09:10:51;5.04;90.23
49489;SHT31;35382;51.484;11.476;2023-12-20T09:13:16;4.92;90.02
49489;SHT31;35382;51.484;11.476;2023-12-20T09:15:42;4.84;91.27
49489;SHT31;35382;51.484;11.476;2023-12-20T09:18:07;4.77;91.24
49489;SHT31;35382;51.484;11.476;2023-12-20T09:20:33;4.74;91.01
49489;SHT31;35382;51.484;11.476;2023-12-20T09:22:59;4.72;91.21
49489;SHT31;35382;51.484;11.476;2023-12-20T09:25:24;4.69;91.57
49489;SHT31;35382;51.484;11.476;2023-12-20T09:27:49;4.77;91.51
49489;SHT31;35382;51.484;11.476;2023-12-20T09:30:18;4.78;92.09
49489;SHT31;35382;51.484;11.476;2023-12-20T09:32:43;4.81;91.98
49489;SHT31;35382;51.484;11.476;2023-12-20T09:35:08;4.87;91.26
49489;SHT31;35382;51.484;11.476;2023-12-20T09:37:34;4.92;90.56
49489;SHT31;35382;51.484;11.476;2023-12-20T09:39:59;4.89;90.18
49489;SHT31;35382;51.484;11.476;2023-12-20T09:43:18;5.02;90.35
49489;SHT31;35382;51.484;11.476;2023-12-20T09:45:20;4.98;89.88
49489;SHT31;35382;51.484;11.476;2023-12-20T09:47:46;5.07;89.84
49489;SHT31;35382;51.484;11.476;2023-12-20T09:50:12;5.22;89.64
49489;SHT31;35382;51.484;11.476;2023-12-20T09:52:38;5.13;89.48
49489;SHT31;35382;51.484;11.476;2023-12-20T09:55:07;5.11;90.71
49489;SHT31;35382;51.484;11.476;2023-12-20T09:57:35;5.16;90.19
49489;SHT31;35382;51.484;11.476;2023-12-20T10:00:04;5.19;90.31
49489;SHT31;35382;51.484;11.476;2023-12-20T10:02:59;5.16;89.65
49489;SHT31;35382;51.484;11.476;2023-12-20T10:05:31;5.11;90.62
49489;SHT31;35382;51.484;11.476;2023-12-20T10:07:59;5.01;90.62
49489;SHT31;35382;51.484;11.476;2023-12-20T10:10:39;4.95;91.13
49489;SHT31;35382;51.484;11.476;2023-12-20T10:13:45;4.96;91.10
49489;SHT31;35382;51.484;11.476;2023-12-20T10:16:12;5.16;91.32
49489;SHT31;35382;51.484;11.476;2023-12-20T10:18:49;5.15;90.58
49489;SHT31;35382;51.484;11.476;2023-12-20T10:21:14;5.22;90.17
49489;SHT31;35382;51.484;11.476;2023-12-20T10:24:21;5.23;89.96
49489;SHT31;35382;51.484;11.476;2023-12-20T10:27:06;5.26;89.67
49489;SHT31;35382;51.484;11.476;2023-12-20T10:29:42;5.26;89.74
49489;SHT31;35382;51.484;11.476;2023-12-20T10:32:32;5.42;89.47
49489;SHT31;35382;51.484;11.476;2023-12-20T10:35:08;5.50;89.36
49489;SHT31;35382;51.484;11.476;2023-12-20T10:38:12;5.59;89.80
49489;SHT31;35382;51.484;11.476;2023-12-20T10:40:38;5.62;89.53
49489;SHT31;35382;51.484;11.476;2023-12-20T10:43:08;5.53;90.14
49489;SHT31;35382;51.484;11.476;2023-12-20T10:45:34;5.43;90.04
49489;SHT31;35382;51.484;11.476;2023-12-20T10:48:01;5.36;89.79
49489;SHT31;35382;51.484;11.476;2023-12-20T10:50:28;5.33;91.10
49489;SHT31;35382;51.484;11.476;2023-12-20T10:52:58;5.35;90.65
49489;SHT31;35382;51.484;11.476;2023-12-20T10:55:46;5.32;90.04
49489;SHT31;35382;51.484;11.476;2023-12-20T10:58:32;5.32;90.11
49489;SHT31;35382;51.484;11.476;2023-12-20T11:01:02;5.42;90.26
49489;SHT31;35382;51.484;11.476;2023-12-20T11:03:32;5.50;89.93
49489;SHT31;35382;51.484;11.476;2023-12-20T11:06:10;5.53;90.16
49489;SHT31;35382;51.484;11.476;2023-12-20T11:14:51;5.36;90.68
49489;SHT31;35382;51.484;11.476;2023-12-20T11:17:38;5.42;90.27
49489;SHT31;35382;51.484;11.476;2023-12-20T11:20:54;5.50;89.30
49489;SHT31;35382;51.484;11.476;2023-12-20T11:23:15;5.67;89.97
49489;SHT31;35382;51.484;11.476;2023-12-20T11:26:13;6.20;89.85
49489;SHT31;35382;51.484;11.476;2023-12-20T11:29:35;6.24;88.14
49489;SHT31;35382;51.484;11.476;2023-12-20T11:32:29;6.54;88.76
49489;SHT31;35382;51.484;11.476;2023-12-20T11:38:20;6.65;87.85
49489;SHT31;35382;51.484;11.476;2023-12-20T11:40:53;6.84;87.93
49489;SHT31;35382;51.484;11.476;2023-12-20T11:43:47;6.92;87.03
49489;SHT31;35382;51.484;11.476;2023-12-20T11:46:16;6.93;87.42
49489;SHT31;35382;51.484;11.476;2023-12-20T11:48:54;6.44;87.99
49489;SHT31;35382;51.484;11.476;2023-12-20T11:51:29;6.18;88.77
49489;SHT31;35382;51.484;11.476;2023-12-20T11:53:55;6.16;88.42
49489;SHT31;35382;51.484;11.476;2023-12-20T11:56:20;6.16;88.52
49489;SHT31;35382;51.484;11.476;2023-12-20T11:58:46;6.28;88.18
49489;SHT31;35382;51.484;11.476;2023-12-20T12:01:11;6.09;88.71
49489;SHT31;35382;51.484;11.476;2023-12-20T12:03:36;6.06;88.50
49489;SHT31;35382;51.484;11.476;2023-12-20T12:06:02;6.04;88.87
49489;SHT31;35382;51.484;11.476;2023-12-20T12:08:27;5.94;89.00
49489;SHT31;35382;51.484;11.476;2023-12-20T12:10:53;5.89;88.82
49489;SHT31;35382;51.484;11.476;2023-12-20T12:13:18;5.80;88.87
49489;SHT31;35382;51.484;11.476;2023-12-20T12:15:44;5.80;89.13
49489;SHT31;35382;51.484;11.476;2023-12-20T12:18:09;5.70;89.13
49489;SHT31;35382;51.484;11.476;2023-12-20T12:20:35;5.66;89.96
49489;SHT31;35382;51.484;11.476;2023-12-20T12:23:01;5.63;89.03
49489;SHT31;35382;51.484;11.476;2023-12-20T12:25:28;5.59;89.44
49489;SHT31;35382;51.484;11.476;2023-12-20T12:27:55;5.59;89.51
49489;SHT31;35382;51.484;11.476;2023-12-20T12:30:20;5.65;89.03
49489;SHT31;35382;51.484;11.476;2023-12-20T12:32:46;5.63;88.53
49489;SHT31;35382;51.484;11.476;2023-12-20T12:35:11;5.57;89.36
49489;SHT31;35382;51.484;11.476;2023-12-20T12:37:38;5.62;89.29
49489;SHT31;35382;51.484;11.476;2023-12-20T12:40:06;5.57;89.86
49489;SHT31;35382;51.484;11.476;2023-12-20T12:42:31;5.50;90.14
49489;SHT31;35382;51.484;11.476;2023-12-20T12:44:56;5.49;89.90
49489;SHT31;35382;51.484;11.476;2023-12-20T12:47:22;5.49;90.12
49489;SHT31;35382;51.484;11.476;2023-12-20T12:49:49;5.52;90.12
49489;SHT31;35382;51.484;11.476;2023-12-20T12:52:16;5.52;90.13
49489;SHT31;35382;51.484;11.476;2023-12-20T12:54:41;5.55;89.84
49489;SHT31;35382;51.484;11.476;2023-12-20T12:57:07;5.49;89.99
49489;SHT31;35382;51.484;11.476;2023-12-20T12:59:32;5.50;89.94
49489;SHT31;35382;51.484;11.476;2023-12-20T13:01:57;5.55;90.18
49489;SHT31;35382;51.484;11.476;2023-12-20T13:04:23;5.40;91.28
49489;SHT31;35382;51.484;11.476;2023-12-20T13:06:48;5.43;91.07
49489;SHT31;35382;51.484;11.476;2023-12-20T13:09:13;5.31;91.88
49489;SHT31;35382;51.484;11.476;2023-12-20T13:11:39;5.28;92.00
49489;SHT31;35382;51.484;11.476;2023-12-20T13:14:04;5.23;92.51
49489;SHT31;35382;51.484;11.476;2023-12-20T13:16:29;5.28;92.19
49489;SHT31;35382;51.484;11.476;2023-12-20T13:18:55;5.28;92.19
49489;SHT31;35382;51.484;11.476;2023-12-20T13:21:20;5.15;93.66
49489;SHT31;35382;51.484;11.476;2023-12-20T13:23:45;5.19;93.23
49489;SHT31;35382;51.484;11.476;2023-12-20T13:26:11;5.26;92.65
49489;SHT31;35382;51.484;11.476;2023-12-20T13:28:36;5.26;93.09
49489;SHT31;35382;51.484;11.476;2023-12-20T13:31:01;5.21;94.02
49489;SHT31;35382;51.484;11.476;2023-12-20T13:33:27;5.12;94.25
49489;SHT31;35382;51.484;11.476;2023-12-20T13:35:52;5.13;94.07
49489;SHT31;35382;51.484;11.476;2023-12-20T13:38:18;5.16;93.14
49489;SHT31;35382;51.484;11.476;2023-12-20T13:40:43;5.18;93.18
49489;SHT31;35382;51.484;11.476;2023-12-20T13:43:08;5.18;93.59
49489;SHT31;35382;51.484;11.476;2023-12-20T13:45:34;5.12;94.08
49489;SHT31;35382;51.484;11.476;2023-12-20T13:47:59;5.22;93.27
49489;SHT31;35382;51.484;11.476;2023-12-20T13:50:24;5.12;94.03
49489;SHT31;35382;51.484;11.476;2023-12-20T13:52:50;5.04;94.40
49489;SHT31;35382;51.484;11.476;2023-12-20T13:55:15;5.05;93.80
49489;SHT31;35382;51.484;11.476;2023-12-20T13:57:40;5.01;94.43
49489;SHT31;35382;51.484;11.476;2023-12-20T14:00:06;5.01;94.68
49489;SHT31;35382;51.484;11.476;2023-12-20T14:02:35;5.02;94.41
49489;SHT31;35382;51.484;11.476;2023-12-20T14:05:00;5.02;94.43
49489;SHT31;35382;51.484;11.476;2023-12-20T14:07:26;4.98;94.99
49489;SHT31;35382;51.484;11.476;2023-12-20T14:09:51;5.05;94.38
49489;SHT31;35382;51.484;11.476;2023-12-20T14:12:17;5.07;94.30
49489;SHT31;35382;51.484;11.476;2023-12-20T14:14:42;5.08;94.01
49489;SHT31;35382;51.484;11.476;2023-12-20T14:17:07;5.09;94.12
49489;SHT31;35382;51.484;11.476;2023-12-20T14:19:33;5.05;94.25
49489;SHT31;35382;51.484;11.476;2023-12-20T14:21:58;4.96;95.03
49489;SHT31;35382;51.484;11.476;2023-12-20T14:24:24;4.98;95.06
49489;SHT31;35382;51.484;11.476;2023-12-20T14:26:49;4.93;95.38
49489;SHT31;35382;51.484;11.476;2023-12-20T14:29:14;4.95;95.12
49489;SHT31;35382;51.484;11.476;2023-12-20T14:31:40;5.01;94.19
49489;SHT31;35382;51.484;11.476;2023-12-20T14:34:05;5.02;94.44
49489;SHT31;35382;51.484;11.476;2023-12-20T14:36:31;4.91;95.60
49489;SHT31;35382;51.484;11.476;2023-12-20T14:38:57;4.78;96.62
49489;SHT31;35382;51.484;11.476;2023-12-20T14:41:22;4.68;97.09
49489;SHT31;35382;51.484;11.476;2023-12-20T14:43:47;4.68;97.40
49489;SHT31;35382;51.484;11.476;2023-12-20T14:46:13;4.72;97.35
49489;SHT31;35382;51.484;11.476;2023-12-20T14:48:38;4.72;97.12
49489;SHT31;35382;51.484;11.476;2023-12-20T14:51:07;4.72;96.93
49489;SHT31;35382;51.484;11.476;2023-12-20T14:53:32;4.71;96.78
49489;SHT31;35382;51.484;11.476;2023-12-20T14:55:57;4.75;96.59
49489;SHT31;35382;51.484;11.476;2023-12-20T14:58:23;4.77;96.45
49489;SHT31;35382;51.484;11.476;2023-12-20T15:00:48;4.69;96.91
49489;SHT31;35382;51.484;11.476;2023-12-20T15:03:13;4.61;97.14
49489;SHT31;35382;51.484;11.476;2023-12-20T15:05:39;4.67;96.96
49489;SHT31;35382;51.484;11.476;2023-12-20T15:08:05;4.64;97.01
49489;SHT31;35382;51.484;11.476;2023-12-20T15:10:30;4.67;96.91
49489;SHT31;35382;51.484;11.476;2023-12-20T15:12:55;4.62;97.11
49489;SHT31;35382;51.484;11.476;2023-12-20T15:15:21;4.64;96.80
49489;SHT31;35382;51.484;11.476;2023-12-20T15:17:47;4.61;96.72
49489;SHT31;35382;51.484;11.476;2023-12-20T15:20:12;4.67;96.61
49489;SHT31;35382;51.484;11.476;2023-12-20T15:22:38;4.67;96.71
49489;SHT31;35382;51.484;11.476;2023-12-20T15:25:03;4.71;96.14
49489;SHT31;35382;51.484;11.476;2023-12-20T15:27:29;4.75;96.32
49489;SHT31;35382;51.484;11.476;2023-12-20T15:29:54;4.68;96.67
49489;SHT31;35382;51.484;11.476;2023-12-20T15:32:20;4.69;96.22
49489;SHT31;35382;51.484;11.476;2023-12-20T15:34:45;4.67;96.63
49489;SHT31;35382;51.484;11.476;2023-12-20T15:37:11;4.68;96.29
49489;SHT31;35382;51.484;11.476;2023-12-20T15:39:36;4.68;96.31